createdAt,value
2018-01-26T00:02:18.101Z,2.10
2018-01-26T00:04:50.429Z,2.20
2018-01-26T00:07:18.519Z,2.10
2018-01-26T00:09:45.709Z,2.10
2018-01-26T00:12:14.149Z,2.10
2018-01-26T00:14:42.344Z,2.00
2018-01-26T00:17:10.040Z,2.20
2018-01-26T00:19:37.873Z,2.40
2018-01-26T00:22:07.449Z,2.60
2018-01-26T00:24:38.009Z,2.60
2018-01-26T00:29:34.020Z,2.80
2018-01-26T00:32:03.966Z,2.90
2018-01-26T00:34:32.374Z,2.60
2018-01-26T00:37:00.050Z,2.30
2018-01-26T00:39:28.018Z,2.30
2018-01-26T00:41:55.629Z,2.00
2018-01-26T00:44:23.330Z,2.00
2018-01-26T00:46:51.990Z,2.20
2018-01-26T00:51:59.013Z,1.70
2018-01-26T00:54:26.630Z,1.90
2018-01-26T00:56:56.054Z,1.90
2018-01-26T00:59:23.734Z,1.40
2018-01-26T01:01:51.370Z,1.40
2018-01-26T01:04:18.983Z,1.60
2018-01-26T01:06:46.658Z,1.90
2018-01-26T01:09:14.276Z,2.20
2018-01-26T01:11:41.891Z,2.50
2018-01-26T01:14:09.566Z,3.10
2018-01-26T01:16:37.182Z,2.60
2018-01-26T01:19:04.794Z,3.10
2018-01-26T01:21:32.466Z,3.30
2018-01-26T01:24:00.119Z,2.80
2018-01-26T01:26:27.744Z,2.00
2018-01-26T01:28:55.415Z,2.10
2018-01-26T01:31:23.036Z,1.90
2018-01-26T01:33:50.657Z,1.90
2018-01-26T01:36:18.321Z,2.40
2018-01-26T01:38:45.941Z,2.30
2018-01-26T01:41:13.569Z,2.60
2018-01-26T01:43:41.254Z,1.60
2018-01-26T01:46:09.816Z,1.50
2018-01-26T01:48:37.448Z,1.90
2018-01-26T01:51:05.105Z,2.30
2018-01-26T01:53:32.729Z,1.90
2018-01-26T01:56:00.353Z,1.90
2018-01-26T01:58:28.047Z,1.50
2018-01-26T02:00:55.674Z,1.70
2018-01-26T02:03:23.284Z,2.00
2018-01-26T02:05:50.993Z,1.40
2018-01-26T02:08:18.989Z,1.60
2018-01-26T02:10:46.606Z,1.30
2018-01-26T02:15:53.372Z,1.20
2018-01-26T02:18:21.042Z,1.50
2018-01-26T02:20:49.616Z,1.70
2018-01-26T02:23:17.238Z,2.00
2018-01-26T02:25:44.921Z,2.50
2018-01-26T02:28:12.545Z,1.70
2018-01-26T02:30:40.161Z,2.10
2018-01-26T02:33:07.837Z,2.00
2018-01-26T02:35:35.457Z,2.00
2018-01-26T02:38:03.082Z,2.20
2018-01-26T02:40:30.751Z,2.30
2018-01-26T02:45:26.954Z,2.50
2018-01-26T02:47:55.394Z,2.00
2018-01-26T02:50:23.009Z,1.90
2018-01-26T02:52:50.627Z,1.80
2018-01-26T02:55:19.201Z,1.20
2018-01-26T02:57:46.758Z,1.20
2018-01-26T03:00:15.334Z,1.40
2018-01-26T03:02:43.884Z,1.70
2018-01-26T03:05:12.364Z,1.80
2018-01-26T03:07:39.977Z,2.00
2018-01-26T03:10:07.645Z,1.30
2018-01-26T03:12:35.266Z,1.30
2018-01-26T03:15:02.883Z,1.50
2018-01-26T03:17:30.580Z,1.00
2018-01-26T03:22:25.819Z,1.50
2018-01-26T03:24:53.491Z,1.50
2018-01-26T03:27:24.620Z,1.90
2018-01-26T03:29:52.236Z,1.60
2018-01-26T03:32:19.921Z,2.10
2018-01-26T03:37:15.150Z,1.90
2018-01-26T03:44:49.627Z,0.90
2018-01-26T03:47:17.242Z,0.90
2018-01-26T03:52:13.475Z,1.20
2018-01-26T03:54:41.082Z,1.40
2018-01-26T03:57:08.694Z,1.70
2018-01-26T03:59:36.390Z,1.80
2018-01-26T04:02:04.019Z,1.20
2018-01-26T04:04:32.926Z,1.10
2018-01-26T04:09:39.320Z,0.80
2018-01-26T04:12:07.030Z,0.90
2018-01-26T04:14:34.643Z,1.30
2018-01-26T04:17:02.260Z,1.00
2018-01-26T04:19:29.948Z,1.30
2018-01-26T04:21:57.562Z,1.10
2018-01-26T04:24:25.184Z,0.90
2018-01-26T04:26:52.863Z,1.00
2018-01-26T04:29:20.480Z,0.60
2018-01-26T04:31:48.097Z,0.80
2018-01-26T04:34:15.774Z,0.90
2018-01-26T04:36:43.394Z,1.10
2018-01-26T04:39:11.019Z,1.20
2018-01-26T04:44:06.321Z,1.10
2018-01-26T04:46:33.940Z,1.60
2018-01-26T04:49:01.640Z,2.00
2018-01-26T04:51:29.256Z,2.30
2018-01-26T04:53:56.887Z,1.30
2018-01-26T04:56:24.570Z,1.40
2018-01-26T04:58:52.186Z,0.90
2018-01-26T05:01:19.809Z,0.90
2018-01-26T05:03:48.367Z,1.10
2018-01-26T05:06:16.833Z,0.50
2018-01-26T05:08:46.786Z,0.40
2018-01-26T05:11:14.461Z,0.70
2018-01-26T05:13:42.078Z,1.00
2018-01-26T05:16:09.702Z,0.90
2018-01-26T05:18:37.370Z,0.90
2018-01-26T05:23:32.617Z,1.50
2018-01-26T05:26:01.178Z,1.20
2018-01-26T05:28:29.745Z,1.30
2018-01-26T05:30:57.361Z,1.60
2018-01-26T05:33:25.038Z,1.40
2018-01-26T05:38:31.797Z,1.30
2018-01-26T05:40:59.414Z,1.10
2018-01-26T05:43:27.047Z,1.20
2018-01-26T05:45:54.742Z,1.50
2018-01-26T05:48:23.244Z,1.80
2018-01-26T05:50:50.857Z,1.90
2018-01-26T05:53:18.531Z,1.60
2018-01-26T05:55:46.142Z,1.10
2018-01-26T05:58:13.773Z,1.00
2018-01-26T06:00:41.448Z,1.30
2018-01-26T06:03:09.061Z,1.30
2018-01-26T06:05:36.680Z,1.10
2018-01-26T06:08:04.378Z,1.40
2018-01-26T06:10:31.993Z,1.50
2018-01-26T06:12:59.608Z,1.40
2018-01-26T06:15:27.289Z,1.60
2018-01-26T06:17:54.906Z,1.40
2018-01-26T06:20:22.537Z,1.40
2018-01-26T06:22:50.204Z,1.80
2018-01-26T06:25:17.822Z,1.80
2018-01-26T06:27:45.459Z,2.20
2018-01-26T06:30:13.160Z,2.20
2018-01-26T06:32:40.764Z,1.80
2018-01-26T06:35:08.386Z,2.00
2018-01-26T06:37:36.067Z,2.10
2018-01-26T06:40:04.517Z,1.50
2018-01-26T06:42:32.233Z,1.50
2018-01-26T06:44:59.914Z,0.90
2018-01-26T06:47:27.529Z,1.00
2018-01-26T06:49:55.156Z,1.30
2018-01-26T06:52:22.856Z,0.70
2018-01-26T06:54:50.479Z,0.80
2018-01-26T06:57:18.094Z,1.10
2018-01-26T07:02:26.098Z,0.90
2018-01-26T07:04:54.686Z,1.20
2018-01-26T07:07:21.403Z,1.20
2018-01-26T07:09:49.744Z,1.20
2018-01-26T07:12:17.803Z,1.40
2018-01-26T07:14:45.900Z,1.80
2018-01-26T07:19:42.034Z,1.20
2018-01-26T07:24:37.271Z,1.60
2018-01-26T07:27:04.945Z,2.20
2018-01-26T07:29:32.572Z,1.80
2018-01-26T07:32:00.187Z,1.90
2018-01-26T07:34:27.868Z,1.90
2018-01-26T07:36:55.486Z,1.80
2018-01-26T07:39:23.096Z,1.50
2018-01-26T07:41:51.089Z,1.40
2018-01-26T07:44:18.723Z,1.70
2018-01-26T07:46:46.344Z,2.10
2018-01-26T07:49:14.033Z,1.40
2018-01-26T07:51:41.654Z,1.50
2018-01-26T07:54:09.269Z,1.40
2018-01-26T07:56:36.942Z,1.50
2018-01-26T08:01:32.178Z,1.10
2018-01-26T08:04:00.623Z,1.20
2018-01-26T08:06:28.243Z,1.60
2018-01-26T08:08:55.867Z,1.80
2018-01-26T08:11:23.553Z,1.50
2018-01-26T08:13:51.175Z,1.70
2018-01-26T08:16:18.791Z,2.00
2018-01-26T08:21:25.898Z,2.50
2018-01-26T08:23:53.567Z,2.40
2018-01-26T08:26:21.186Z,2.50
2018-01-26T08:28:48.816Z,2.60
2018-01-26T08:31:17.287Z,2.70
2018-01-26T08:36:12.531Z,2.60
2018-01-26T08:38:40.208Z,2.60
2018-01-26T08:41:07.836Z,2.80
2018-01-26T08:43:35.454Z,2.90
2018-01-26T08:46:06.096Z,2.90
2018-01-26T08:48:33.700Z,2.60
2018-01-26T08:51:01.316Z,2.80
2018-01-26T08:53:28.993Z,2.30
2018-01-26T08:58:37.816Z,2.70
2018-01-26T09:01:05.426Z,3.00
2018-01-26T09:03:33.045Z,3.10
2018-01-26T09:06:00.718Z,3.00
2018-01-26T09:10:57.158Z,2.90
2018-01-26T09:13:24.831Z,3.10
2018-01-26T09:15:52.446Z,2.40
2018-01-26T09:18:20.089Z,2.50
2018-01-26T09:20:48.767Z,2.90
2018-01-26T09:23:16.380Z,2.70
2018-01-26T09:25:44.005Z,3.30
2018-01-26T09:28:11.674Z,3.20
2018-01-26T09:30:39.286Z,3.60
2018-01-26T09:33:07.860Z,4.00
2018-01-26T09:35:35.576Z,3.70
2018-01-26T09:38:03.191Z,3.80
2018-01-26T09:40:30.827Z,3.40
2018-01-26T09:42:58.515Z,3.40
2018-01-26T09:45:26.133Z,3.70
2018-01-26T09:47:53.755Z,3.40
2018-01-26T09:50:21.429Z,3.50
2018-01-26T09:52:49.054Z,3.90
2018-01-26T09:55:16.691Z,3.90
2018-01-26T09:57:44.369Z,3.90
2018-01-26T10:00:13.016Z,4.00
2018-01-26T10:02:40.604Z,4.10
2018-01-26T10:05:08.301Z,4.30
2018-01-26T10:07:35.923Z,4.30
2018-01-26T10:10:03.542Z,3.80
2018-01-26T10:12:31.225Z,3.90
2018-01-26T10:14:58.838Z,4.10
2018-01-26T10:17:26.491Z,4.20
2018-01-26T10:22:33.746Z,4.30
2018-01-26T10:25:01.420Z,4.50
2018-01-26T10:29:56.720Z,4.70
2018-01-26T10:32:24.359Z,4.80
2018-01-26T10:34:51.983Z,4.20
2018-01-26T10:37:19.592Z,4.30
2018-01-26T10:39:47.274Z,4.40
2018-01-26T10:42:14.882Z,4.10
2018-01-26T10:44:42.584Z,3.70
2018-01-26T10:47:10.180Z,3.70
2018-01-26T10:49:37.787Z,3.70
2018-01-26T10:52:05.423Z,3.90
2018-01-26T10:54:33.110Z,3.80
2018-01-26T10:57:00.733Z,4.20
2018-01-26T10:59:28.691Z,4.70
2018-01-26T11:01:56.353Z,5.20
2018-01-26T11:04:23.977Z,4.90
2018-01-26T11:06:51.601Z,4.90
2018-01-26T11:09:19.280Z,5.00
2018-01-26T11:11:46.919Z,4.50
2018-01-26T11:14:14.544Z,4.60
2018-01-26T11:16:42.228Z,4.90
2018-01-26T11:19:09.848Z,4.70
2018-01-26T11:21:37.480Z,4.90
2018-01-26T11:24:05.155Z,4.50
2018-01-26T11:26:32.779Z,4.70
2018-01-26T11:29:00.395Z,5.00
2018-01-26T11:31:30.751Z,4.90
2018-01-26T11:33:58.393Z,5.10
2018-01-26T11:36:26.023Z,5.10
2018-01-26T11:38:53.688Z,4.70
2018-01-26T11:43:48.968Z,4.70
2018-01-26T11:48:58.510Z,5.10
2018-01-26T11:51:26.183Z,5.70
2018-01-26T11:53:53.814Z,5.40
2018-01-26T11:56:21.433Z,5.60
2018-01-26T11:58:49.115Z,6.20
2018-01-26T12:01:16.740Z,7.20
2018-01-26T12:03:44.757Z,6.90
2018-01-26T12:06:12.532Z,6.70
2018-01-26T12:08:40.158Z,7.00
2018-01-26T12:11:07.780Z,7.80
2018-01-26T12:13:35.465Z,7.70
2018-01-26T12:16:03.092Z,8.00
2018-01-26T12:18:30.719Z,7.70
2018-01-26T12:20:58.405Z,7.60
2018-01-26T12:23:26.488Z,8.10
2018-01-26T12:25:54.117Z,8.30
2018-01-26T12:28:21.798Z,8.10
2018-01-26T12:30:49.429Z,8.40
2018-01-26T12:33:17.044Z,8.80
2018-01-26T12:35:44.716Z,9.00
2018-01-26T12:38:12.368Z,9.50
2018-01-26T12:40:39.980Z,9.80
2018-01-26T12:43:07.676Z,9.40
2018-01-26T12:45:35.295Z,9.30
2018-01-26T12:48:02.918Z,9.20
2018-01-26T12:50:30.610Z,9.50
2018-01-26T12:53:06.031Z,9.30
2018-01-26T12:55:34.156Z,9.60
2018-01-26T12:58:01.805Z,9.80
2018-01-26T13:00:29.426Z,9.80
2018-01-26T13:02:57.134Z,9.60
2018-01-26T13:05:24.769Z,9.50
2018-01-26T13:07:52.392Z,9.60
2018-01-26T13:13:01.237Z,9.00
2018-01-26T13:15:28.902Z,9.00
2018-01-26T13:17:56.530Z,9.30
2018-01-26T13:20:24.967Z,9.10
2018-01-26T13:22:52.651Z,9.10
2018-01-26T13:25:20.270Z,8.90
2018-01-26T13:27:47.891Z,9.00
2018-01-26T13:30:15.589Z,9.20
2018-01-26T13:35:10.868Z,8.80
2018-01-26T13:37:38.694Z,8.80
2018-01-26T13:40:06.421Z,9.00
2018-01-26T13:42:35.012Z,8.90
2018-01-26T13:47:30.363Z,10.00
2018-01-26T13:49:58.052Z,10.30
2018-01-26T13:52:25.675Z,10.10
2018-01-26T13:54:53.294Z,9.60
2018-01-26T13:57:20.915Z,9.50
2018-01-26T13:59:48.623Z,9.80
2018-01-26T14:02:16.243Z,10.20
2018-01-26T14:04:43.872Z,10.50
2018-01-26T14:07:11.584Z,10.70
2018-01-26T14:09:39.250Z,10.70
2018-01-26T14:12:07.175Z,10.70
2018-01-26T14:14:34.847Z,10.80
2018-01-26T14:17:02.464Z,10.80
2018-01-26T14:21:57.759Z,10.70
2018-01-26T14:24:25.398Z,10.70
2018-01-26T14:26:53.031Z,10.50
2018-01-26T14:29:20.710Z,10.70
2018-01-26T14:31:48.335Z,10.70
2018-01-26T14:34:15.972Z,10.80
2018-01-26T14:39:22.747Z,11.00
2018-01-26T14:41:50.459Z,11.10
2018-01-26T14:44:18.118Z,11.20
2018-01-26T14:46:45.782Z,11.20
2018-01-26T14:49:13.678Z,11.20
2018-01-26T14:51:41.342Z,11.40
2018-01-26T14:54:09.108Z,11.40
2018-01-26T14:56:36.790Z,11.50
2018-01-26T14:59:04.405Z,11.50
2018-01-26T15:01:32.033Z,11.50
2018-01-26T15:06:27.357Z,11.10
2018-01-26T15:08:55.127Z,9.00
2018-01-26T15:11:22.836Z,9.20
2018-01-26T15:13:50.474Z,9.20
2018-01-26T15:16:18.095Z,9.00
2018-01-26T15:18:45.770Z,9.00
2018-01-26T15:21:13.408Z,9.10
2018-01-26T15:23:41.040Z,8.80
2018-01-26T15:26:08.780Z,8.90
2018-01-26T15:28:36.424Z,9.10
2018-01-26T15:31:04.059Z,9.40
2018-01-26T15:33:31.761Z,9.30
2018-01-26T15:35:59.392Z,9.30
2018-01-26T15:38:27.022Z,9.50
2018-01-26T15:40:54.745Z,9.40
2018-01-26T15:43:22.380Z,9.60
2018-01-26T15:45:50.024Z,9.70
2018-01-26T15:48:17.726Z,9.70
2018-01-26T15:50:45.355Z,10.30
2018-01-26T15:55:52.162Z,10.30
2018-01-26T15:58:19.819Z,10.30
2018-01-26T16:00:47.460Z,10.50
2018-01-26T16:03:15.159Z,10.70
2018-01-26T16:05:42.786Z,10.50
2018-01-26T16:08:10.418Z,10.40
2018-01-26T16:10:38.105Z,10.30
2018-01-26T16:13:05.763Z,10.10
2018-01-26T16:15:33.398Z,10.00
2018-01-26T16:18:01.134Z,9.90
2018-01-26T16:20:28.737Z,10.00
2018-01-26T16:25:24.908Z,10.30
2018-01-26T16:27:53.388Z,10.20
2018-01-26T16:30:21.015Z,10.10
2018-01-26T16:35:16.341Z,10.10
2018-01-26T16:37:43.979Z,10.00
2018-01-26T16:40:11.685Z,10.00
2018-01-26T16:42:39.322Z,9.90
2018-01-26T16:45:06.942Z,9.90
2018-01-26T16:47:34.631Z,9.70
2018-01-26T16:50:02.256Z,9.50
2018-01-26T16:52:29.874Z,9.60
2018-01-26T16:54:57.540Z,9.70
2018-01-26T16:57:25.160Z,9.80
2018-01-26T17:02:20.937Z,8.70
2018-01-26T17:04:48.568Z,8.50
2018-01-26T17:07:16.188Z,8.50
2018-01-26T17:09:43.865Z,8.60
2018-01-26T17:12:11.507Z,8.90
2018-01-26T17:14:39.126Z,9.10
2018-01-26T17:19:45.934Z,9.10
2018-01-26T17:22:13.586Z,8.90
2018-01-26T17:24:41.201Z,9.00
2018-01-26T17:27:08.816Z,7.70
2018-01-26T17:29:36.539Z,7.40
2018-01-26T17:32:04.159Z,7.40
2018-01-26T17:34:31.796Z,7.30
2018-01-26T17:37:00.445Z,6.90
2018-01-26T17:39:28.920Z,6.80
2018-01-26T17:44:25.171Z,7.70
2018-01-26T17:46:52.807Z,7.20
2018-01-26T17:49:20.376Z,6.90
2018-01-26T17:51:48.056Z,7.00
2018-01-26T17:54:16.540Z,7.20
2018-01-26T17:56:44.170Z,6.90
2018-01-26T17:59:12.686Z,6.40
2018-01-26T18:01:40.309Z,6.50
2018-01-26T18:04:07.939Z,6.60
2018-01-26T18:06:35.618Z,5.70
2018-01-26T18:09:03.240Z,5.80
2018-01-26T18:11:30.863Z,5.40
2018-01-26T18:14:01.526Z,5.50
2018-01-26T18:16:29.160Z,5.60
2018-01-26T18:18:58.982Z,5.30
2018-01-26T18:21:26.647Z,5.40
2018-01-26T18:23:54.301Z,5.60
2018-01-26T18:26:21.926Z,5.60
2018-01-26T18:28:49.599Z,5.70
2018-01-26T18:33:45.686Z,5.90
2018-01-26T18:38:52.464Z,5.20
2018-01-26T18:41:20.135Z,5.20
2018-01-26T18:43:47.806Z,5.40
2018-01-26T18:46:15.476Z,5.70
2018-01-26T18:48:43.173Z,5.70
2018-01-26T18:51:10.807Z,4.80
2018-01-26T18:53:38.442Z,5.00
2018-01-26T18:56:06.114Z,5.00
2018-01-26T18:58:33.763Z,4.80
2018-01-26T19:01:01.375Z,4.80
2018-01-26T19:03:29.075Z,5.00
2018-01-26T19:05:56.701Z,4.70
2018-01-26T19:08:25.127Z,5.10
2018-01-26T19:10:53.755Z,4.60
2018-01-26T19:13:21.367Z,4.80
2018-01-26T19:15:49.001Z,4.80
2018-01-26T19:18:16.683Z,4.30
2018-01-26T19:20:44.321Z,4.30
2018-01-26T19:23:12.135Z,4.10
2018-01-26T19:25:39.786Z,4.00
2018-01-26T19:28:07.417Z,5.50
2018-01-26T19:30:35.057Z,4.10
2018-01-26T19:33:02.746Z,4.20
2018-01-26T19:35:30.385Z,4.20
2018-01-26T19:37:58.021Z,4.40
2018-01-26T19:40:25.737Z,4.10
2018-01-26T19:42:53.359Z,4.40
2018-01-26T19:45:20.989Z,3.90
2018-01-26T19:47:48.676Z,4.00
2018-01-26T19:50:16.398Z,3.70
2018-01-26T19:55:23.204Z,4.10
2018-01-26T19:57:50.829Z,4.40
2018-01-26T20:00:18.991Z,4.30
2018-01-26T20:02:46.719Z,3.60
2018-01-26T20:05:31.913Z,3.90
2018-01-26T20:10:48.882Z,4.30
2018-01-26T20:13:22.058Z,4.50
2018-01-26T20:15:49.746Z,4.10
2018-01-26T20:18:17.365Z,3.70
2018-01-26T20:20:44.994Z,4.00
2018-01-26T20:23:12.662Z,4.00
2018-01-26T20:25:40.289Z,4.10
2018-01-26T20:28:07.910Z,3.70
2018-01-26T20:30:35.777Z,3.90
2018-01-26T20:33:03.311Z,4.20
2018-01-26T20:35:30.939Z,3.80
2018-01-26T20:40:26.313Z,3.10
2018-01-26T20:42:53.862Z,2.60
2018-01-26T20:45:21.564Z,2.80
2018-01-26T20:47:49.204Z,3.20
2018-01-26T20:50:16.858Z,3.70
2018-01-26T20:52:44.561Z,2.90
2018-01-26T20:55:12.211Z,2.80
2018-01-26T20:57:39.851Z,2.90
2018-01-26T21:00:07.527Z,3.00
2018-01-26T21:02:35.173Z,3.20
2018-01-26T21:05:02.889Z,2.70
2018-01-26T21:07:31.447Z,3.10
2018-01-26T21:09:59.197Z,1.90
2018-01-26T21:12:26.848Z,2.20
2018-01-26T21:14:54.569Z,2.40
2018-01-26T21:19:49.785Z,2.40
2018-01-26T21:22:17.459Z,3.00
2018-01-26T21:24:45.111Z,3.10
2018-01-26T21:29:53.354Z,3.00
2018-01-26T21:32:20.964Z,2.90
2018-01-26T21:34:48.624Z,3.10
2018-01-26T21:37:16.300Z,3.10
2018-01-26T21:39:43.926Z,2.40
2018-01-26T21:42:11.540Z,2.70
2018-01-26T21:44:39.239Z,3.00
2018-01-26T21:47:06.869Z,2.30
2018-01-26T21:49:34.477Z,2.30
2018-01-26T21:54:29.826Z,2.50
2018-01-26T21:56:57.754Z,2.50
2018-01-26T21:59:25.412Z,2.60
2018-01-26T22:01:53.016Z,2.80
2018-01-26T22:04:22.579Z,2.20
2018-01-26T22:06:55.956Z,2.30
2018-01-26T22:09:24.338Z,2.30
2018-01-26T22:11:51.944Z,2.40
2018-01-26T22:14:19.620Z,2.40
2018-01-26T22:16:51.114Z,2.50
2018-01-26T22:19:15.658Z,2.50
2018-01-26T22:21:43.342Z,2.50
2018-01-26T22:24:10.966Z,2.40
2018-01-26T22:26:38.595Z,2.30
2018-01-26T22:31:34.193Z,2.20
2018-01-26T22:34:01.803Z,2.10
2018-01-26T22:36:29.479Z,2.20
2018-01-26T22:38:57.103Z,2.40
2018-01-26T22:43:53.765Z,2.30
2018-01-26T22:46:21.389Z,2.30
2018-01-26T22:48:49.025Z,2.10
2018-01-26T22:51:16.698Z,1.80
2018-01-26T22:56:23.458Z,2.10
2018-01-26T22:58:51.086Z,1.90
2018-01-26T23:03:46.430Z,2.30
2018-01-26T23:06:14.042Z,2.50
2018-01-26T23:08:41.672Z,2.50
2018-01-26T23:11:09.343Z,2.20
2018-01-26T23:13:36.972Z,2.10
2018-01-26T23:16:04.593Z,2.20
2018-01-26T23:18:32.288Z,1.90
2018-01-26T23:20:59.906Z,1.70
2018-01-26T23:23:27.569Z,1.90
2018-01-26T23:25:58.486Z,2.10
2018-01-26T23:28:26.891Z,2.10
2018-01-26T23:30:56.159Z,2.20
2018-01-26T23:33:25.241Z,2.20
2018-01-26T23:35:52.869Z,1.50
2018-01-26T23:38:20.519Z,1.60
2018-01-26T23:40:48.236Z,1.70
2018-01-26T23:43:15.857Z,1.80
2018-01-26T23:45:44.182Z,1.90
2018-01-26T23:48:11.858Z,2.00
2018-01-26T23:50:39.479Z,2.10
2018-01-26T23:53:07.953Z,2.20
2018-01-26T23:55:36.146Z,2.20
2018-01-26T23:58:03.809Z,2.30
